sensor_id;sensor_type;location;lat;lon;timestamp;P1;durP1;ratioP1;P2;durP2;ratioP2
9665;SDS011;4871;52.004;5.924;2022-12-10T00:00:00;27.00;;;14.10;;
9665;SDS011;4871;52.004;5.924;2022-12-10T00:01:08;27.00;;;14.10;;
9665;SDS011;4871;52.004;5.924;2022-12-10T00:02:00;27.00;;;14.10;;
9665;SDS011;4871;52.004;5.924;2022-12-10T00:03:01;27.00;;;14.10;;
9665;SDS011;4871;52.004;5.924;2022-12-10T00:04:00;27.00;;;14.10;;
9665;SDS011;4871;52.004;5.924;2022-12-10T00:05:00;27.00;;;14.10;;
9665;SDS011;4871;52.004;5.924;2022-12-10T00:06:01;30.00;;;15.00;;
9665;SDS011;4871;52.004;5.924;2022-12-10T00:07:00;30.00;;;15.00;;
9665;SDS011;4871;52.004;5.924;2022-12-10T00:08:00;30.00;;;15.00;;
9665;SDS011;4871;52.004;5.924;2022-12-10T00:09:01;30.00;;;15.00;;
9665;SDS011;4871;52.004;5.924;2022-12-10T00:10:00;30.00;;;15.00;;
9665;SDS011;4871;52.004;5.924;2022-12-10T00:11:02;30.00;;;15.00;;
9665;SDS011;4871;52.004;5.924;2022-12-10T00:12:00;30.00;;;15.00;;
9665;SDS011;4871;52.004;5.924;2022-12-10T00:13:00;30.00;;;15.00;;
9665;SDS011;4871;52.004;5.924;2022-12-10T00:14:00;30.00;;;15.00;;
9665;SDS011;4871;52.004;5.924;2022-12-10T00:15:00;30.00;;;15.00;;
9665;SDS011;4871;52.004;5.924;2022-12-10T00:16:00;30.00;;;15.00;;
9665;SDS011;4871;52.004;5.924;2022-12-10T00:17:00;30.00;;;15.00;;
9665;SDS011;4871;52.004;5.924;2022-12-10T00:18:00;30.00;;;15.00;;
9665;SDS011;4871;52.004;5.924;2022-12-10T00:19:00;30.00;;;15.00;;
9665;SDS011;4871;52.004;5.924;2022-12-10T00:20:00;30.00;;;15.00;;
9665;SDS011;4871;52.004;5.924;2022-12-10T00:21:05;30.00;;;15.00;;
9665;SDS011;4871;52.004;5.924;2022-12-10T00:22:00;30.00;;;15.00;;
9665;SDS011;4871;52.004;5.924;2022-12-10T00:23:00;30.00;;;15.00;;
9665;SDS011;4871;52.004;5.924;2022-12-10T00:24:00;30.00;;;15.00;;
9665;SDS011;4871;52.004;5.924;2022-12-10T00:25:00;30.00;;;15.00;;
9665;SDS011;4871;52.004;5.924;2022-12-10T00:26:17;30.00;;;15.00;;
9665;SDS011;4871;52.004;5.924;2022-12-10T00:27:00;30.00;;;15.00;;
9665;SDS011;4871;52.004;5.924;2022-12-10T00:28:00;30.00;;;15.00;;
9665;SDS011;4871;52.004;5.924;2022-12-10T00:29:00;30.00;;;15.00;;
9665;SDS011;4871;52.004;5.924;2022-12-10T00:30:00;30.00;;;15.00;;
9665;SDS011;4871;52.004;5.924;2022-12-10T00:31:08;30.00;;;15.00;;
9665;SDS011;4871;52.004;5.924;2022-12-10T00:32:00;30.00;;;15.00;;
9665;SDS011;4871;52.004;5.924;2022-12-10T00:33:00;30.00;;;15.00;;
9665;SDS011;4871;52.004;5.924;2022-12-10T00:34:01;30.00;;;15.00;;
9665;SDS011;4871;52.004;5.924;2022-12-10T00:35:00;30.00;;;15.00;;
9665;SDS011;4871;52.004;5.924;2022-12-10T00:36:04;29.20;;;15.00;;
9665;SDS011;4871;52.004;5.924;2022-12-10T00:37:00;29.20;;;15.00;;
9665;SDS011;4871;52.004;5.924;2022-12-10T00:38:00;29.20;;;15.00;;
9665;SDS011;4871;52.004;5.924;2022-12-10T00:39:00;29.20;;;15.00;;
9665;SDS011;4871;52.004;5.924;2022-12-10T00:40:00;29.20;;;15.00;;
9665;SDS011;4871;52.004;5.924;2022-12-10T00:41:00;29.20;;;15.00;;
9665;SDS011;4871;52.004;5.924;2022-12-10T00:42:00;29.20;;;15.00;;
9665;SDS011;4871;52.004;5.924;2022-12-10T00:43:00;29.20;;;15.00;;
9665;SDS011;4871;52.004;5.924;2022-12-10T00:44:00;29.20;;;15.00;;
9665;SDS011;4871;52.004;5.924;2022-12-10T00:45:00;29.20;;;15.00;;
9665;SDS011;4871;52.004;5.924;2022-12-10T00:46:00;29.20;;;15.00;;
9665;SDS011;4871;52.004;5.924;2022-12-10T00:47:00;29.20;;;15.00;;
9665;SDS011;4871;52.004;5.924;2022-12-10T00:48:00;29.20;;;15.00;;
9665;SDS011;4871;52.004;5.924;2022-12-10T00:49:00;29.20;;;15.00;;
9665;SDS011;4871;52.004;5.924;2022-12-10T00:50:00;29.20;;;15.00;;
9665;SDS011;4871;52.004;5.924;2022-12-10T00:52:00;29.20;;;15.00;;
9665;SDS011;4871;52.004;5.924;2022-12-10T00:53:00;29.20;;;15.00;;
9665;SDS011;4871;52.004;5.924;2022-12-10T00:54:00;29.20;;;15.00;;
9665;SDS011;4871;52.004;5.924;2022-12-10T00:55:00;29.20;;;15.00;;
9665;SDS011;4871;52.004;5.924;2022-12-10T00:56:00;29.20;;;15.00;;
9665;SDS011;4871;52.004;5.924;2022-12-10T00:57:00;29.20;;;15.00;;
9665;SDS011;4871;52.004;5.924;2022-12-10T00:58:00;29.20;;;15.00;;
9665;SDS011;4871;52.004;5.924;2022-12-10T00:59:00;29.20;;;15.00;;
9665;SDS011;4871;52.004;5.924;2022-12-10T01:00:00;29.20;;;15.00;;
9665;SDS011;4871;52.004;5.924;2022-12-10T01:01:17;29.20;;;15.00;;
9665;SDS011;4871;52.004;5.924;2022-12-10T01:02:00;29.20;;;15.00;;
9665;SDS011;4871;52.004;5.924;2022-12-10T01:03:00;29.20;;;15.00;;
9665;SDS011;4871;52.004;5.924;2022-12-10T01:04:04;29.20;;;15.00;;
9665;SDS011;4871;52.004;5.924;2022-12-10T01:05:00;29.20;;;15.00;;
9665;SDS011;4871;52.004;5.924;2022-12-10T01:06:07;33.00;;;14.70;;
9665;SDS011;4871;52.004;5.924;2022-12-10T01:07:00;33.00;;;14.70;;
9665;SDS011;4871;52.004;5.924;2022-12-10T01:08:00;33.00;;;14.70;;
9665;SDS011;4871;52.004;5.924;2022-12-10T01:09:01;33.00;;;14.70;;
9665;SDS011;4871;52.004;5.924;2022-12-10T01:10:00;33.00;;;14.70;;
9665;SDS011;4871;52.004;5.924;2022-12-10T01:11:00;33.00;;;14.70;;
9665;SDS011;4871;52.004;5.924;2022-12-10T01:12:02;33.00;;;14.70;;
9665;SDS011;4871;52.004;5.924;2022-12-10T01:13:00;33.00;;;14.70;;
9665;SDS011;4871;52.004;5.924;2022-12-10T01:14:00;33.00;;;14.70;;
9665;SDS011;4871;52.004;5.924;2022-12-10T01:15:00;33.00;;;14.70;;
9665;SDS011;4871;52.004;5.924;2022-12-10T01:16:01;33.00;;;14.70;;
9665;SDS011;4871;52.004;5.924;2022-12-10T01:17:02;33.00;;;14.70;;
9665;SDS011;4871;52.004;5.924;2022-12-10T01:18:00;33.00;;;14.70;;
9665;SDS011;4871;52.004;5.924;2022-12-10T01:19:00;33.00;;;14.70;;
9665;SDS011;4871;52.004;5.924;2022-12-10T01:20:00;33.00;;;14.70;;
9665;SDS011;4871;52.004;5.924;2022-12-10T01:21:02;33.00;;;14.70;;
9665;SDS011;4871;52.004;5.924;2022-12-10T01:22:00;33.00;;;14.70;;
9665;SDS011;4871;52.004;5.924;2022-12-10T01:23:00;33.00;;;14.70;;
9665;SDS011;4871;52.004;5.924;2022-12-10T01:24:00;33.00;;;14.70;;
9665;SDS011;4871;52.004;5.924;2022-12-10T01:25:00;33.00;;;14.70;;
9665;SDS011;4871;52.004;5.924;2022-12-10T01:26:00;33.00;;;14.70;;
9665;SDS011;4871;52.004;5.924;2022-12-10T01:27:00;33.00;;;14.70;;
9665;SDS011;4871;52.004;5.924;2022-12-10T01:28:00;33.00;;;14.70;;
9665;SDS011;4871;52.004;5.924;2022-12-10T01:29:00;33.00;;;14.70;;
9665;SDS011;4871;52.004;5.924;2022-12-10T01:30:00;33.00;;;14.70;;
9665;SDS011;4871;52.004;5.924;2022-12-10T01:31:04;33.00;;;14.70;;
9665;SDS011;4871;52.004;5.924;2022-12-10T01:32:00;33.00;;;14.70;;
9665;SDS011;4871;52.004;5.924;2022-12-10T01:33:00;33.00;;;14.70;;
9665;SDS011;4871;52.004;5.924;2022-12-10T01:34:00;33.00;;;14.70;;
9665;SDS011;4871;52.004;5.924;2022-12-10T01:35:00;33.00;;;14.70;;
9665;SDS011;4871;52.004;5.924;2022-12-10T01:36:01;27.10;;;13.60;;
9665;SDS011;4871;52.004;5.924;2022-12-10T01:37:00;27.10;;;13.60;;
9665;SDS011;4871;52.004;5.924;2022-12-10T01:38:00;27.10;;;13.60;;
9665;SDS011;4871;52.004;5.924;2022-12-10T01:39:00;27.10;;;13.60;;
9665;SDS011;4871;52.004;5.924;2022-12-10T01:40:00;27.10;;;13.60;;
9665;SDS011;4871;52.004;5.924;2022-12-10T01:41:00;27.10;;;13.60;;
9665;SDS011;4871;52.004;5.924;2022-12-10T01:42:00;27.10;;;13.60;;
9665;SDS011;4871;52.004;5.924;2022-12-10T01:43:00;27.10;;;13.60;;
9665;SDS011;4871;52.004;5.924;2022-12-10T01:44:02;27.10;;;13.60;;
9665;SDS011;4871;52.004;5.924;2022-12-10T01:45:01;27.10;;;13.60;;
9665;SDS011;4871;52.004;5.924;2022-12-10T01:46:00;27.10;;;13.60;;
9665;SDS011;4871;52.004;5.924;2022-12-10T01:47:00;27.10;;;13.60;;
9665;SDS011;4871;52.004;5.924;2022-12-10T01:48:00;27.10;;;13.60;;
9665;SDS011;4871;52.004;5.924;2022-12-10T01:49:01;27.10;;;13.60;;
9665;SDS011;4871;52.004;5.924;2022-12-10T01:50:00;27.10;;;13.60;;
9665;SDS011;4871;52.004;5.924;2022-12-10T01:51:00;27.10;;;13.60;;
9665;SDS011;4871;52.004;5.924;2022-12-10T01:52:00;27.10;;;13.60;;
9665;SDS011;4871;52.004;5.924;2022-12-10T01:53:00;27.10;;;13.60;;
9665;SDS011;4871;52.004;5.924;2022-12-10T01:54:00;27.10;;;13.60;;
9665;SDS011;4871;52.004;5.924;2022-12-10T01:55:00;27.10;;;13.60;;
9665;SDS011;4871;52.004;5.924;2022-12-10T01:56:00;27.10;;;13.60;;
9665;SDS011;4871;52.004;5.924;2022-12-10T01:57:02;27.10;;;13.60;;
9665;SDS011;4871;52.004;5.924;2022-12-10T01:58:00;27.10;;;13.60;;
9665;SDS011;4871;52.004;5.924;2022-12-10T01:59:00;27.10;;;13.60;;
9665;SDS011;4871;52.004;5.924;2022-12-10T02:00:01;27.10;;;13.60;;
9665;SDS011;4871;52.004;5.924;2022-12-10T02:01:04;27.10;;;13.60;;
9665;SDS011;4871;52.004;5.924;2022-12-10T02:03:01;27.10;;;13.60;;
9665;SDS011;4871;52.004;5.924;2022-12-10T02:06:05;26.30;;;13.40;;
9665;SDS011;4871;52.004;5.924;2022-12-10T02:07:05;26.30;;;13.40;;
9665;SDS011;4871;52.004;5.924;2022-12-10T02:09:09;26.30;;;13.40;;
9665;SDS011;4871;52.004;5.924;2022-12-10T02:10:04;26.30;;;13.40;;
9665;SDS011;4871;52.004;5.924;2022-12-10T02:11:04;26.30;;;13.40;;
9665;SDS011;4871;52.004;5.924;2022-12-10T02:12:20;26.30;;;13.40;;
9665;SDS011;4871;52.004;5.924;2022-12-10T02:14:02;26.30;;;13.40;;
9665;SDS011;4871;52.004;5.924;2022-12-10T02:15:02;26.30;;;13.40;;
9665;SDS011;4871;52.004;5.924;2022-12-10T02:16:02;26.30;;;13.40;;
9665;SDS011;4871;52.004;5.924;2022-12-10T02:17:03;26.30;;;13.40;;
9665;SDS011;4871;52.004;5.924;2022-12-10T02:18:03;26.30;;;13.40;;
9665;SDS011;4871;52.004;5.924;2022-12-10T02:19:12;26.30;;;13.40;;
9665;SDS011;4871;52.004;5.924;2022-12-10T02:21:02;26.30;;;13.40;;
9665;SDS011;4871;52.004;5.924;2022-12-10T02:22:00;26.30;;;13.40;;
9665;SDS011;4871;52.004;5.924;2022-12-10T02:23:03;26.30;;;13.40;;
9665;SDS011;4871;52.004;5.924;2022-12-10T02:24:01;26.30;;;13.40;;
9665;SDS011;4871;52.004;5.924;2022-12-10T02:25:00;26.30;;;13.40;;
9665;SDS011;4871;52.004;5.924;2022-12-10T02:26:18;26.30;;;13.40;;
9665;SDS011;4871;52.004;5.924;2022-12-10T02:28:03;26.30;;;13.40;;
9665;SDS011;4871;52.004;5.924;2022-12-10T02:30:00;26.30;;;13.40;;
9665;SDS011;4871;52.004;5.924;2022-12-10T02:31:00;26.30;;;13.40;;
9665;SDS011;4871;52.004;5.924;2022-12-10T02:32:02;26.30;;;13.40;;
9665;SDS011;4871;52.004;5.924;2022-12-10T02:33:00;26.30;;;13.40;;
9665;SDS011;4871;52.004;5.924;2022-12-10T02:34:00;26.30;;;13.40;;
9665;SDS011;4871;52.004;5.924;2022-12-10T02:35:00;26.30;;;13.40;;
9665;SDS011;4871;52.004;5.924;2022-12-10T02:36:00;28.50;;;13.50;;
9665;SDS011;4871;52.004;5.924;2022-12-10T02:37:02;28.50;;;13.50;;
9665;SDS011;4871;52.004;5.924;2022-12-10T02:38:05;28.50;;;13.50;;
9665;SDS011;4871;52.004;5.924;2022-12-10T02:39:00;28.50;;;13.50;;
9665;SDS011;4871;52.004;5.924;2022-12-10T02:40:01;28.50;;;13.50;;
9665;SDS011;4871;52.004;5.924;2022-12-10T02:41:02;28.50;;;13.50;;
9665;SDS011;4871;52.004;5.924;2022-12-10T02:42:00;28.50;;;13.50;;
9665;SDS011;4871;52.004;5.924;2022-12-10T02:43:00;28.50;;;13.50;;
9665;SDS011;4871;52.004;5.924;2022-12-10T02:44:00;28.50;;;13.50;;
9665;SDS011;4871;52.004;5.924;2022-12-10T02:45:00;28.50;;;13.50;;
9665;SDS011;4871;52.004;5.924;2022-12-10T02:46:00;28.50;;;13.50;;
9665;SDS011;4871;52.004;5.924;2022-12-10T02:47:00;28.50;;;13.50;;
9665;SDS011;4871;52.004;5.924;2022-12-10T02:48:00;28.50;;;13.50;;
9665;SDS011;4871;52.004;5.924;2022-12-10T02:49:00;28.50;;;13.50;;
9665;SDS011;4871;52.004;5.924;2022-12-10T02:50:00;28.50;;;13.50;;
9665;SDS011;4871;52.004;5.924;2022-12-10T02:51:00;28.50;;;13.50;;
9665;SDS011;4871;52.004;5.924;2022-12-10T02:52:05;28.50;;;13.50;;
9665;SDS011;4871;52.004;5.924;2022-12-10T02:53:00;28.50;;;13.50;;
9665;SDS011;4871;52.004;5.924;2022-12-10T02:54:01;28.50;;;13.50;;
9665;SDS011;4871;52.004;5.924;2022-12-10T02:55:00;28.50;;;13.50;;
9665;SDS011;4871;52.004;5.924;2022-12-10T02:56:06;28.50;;;13.50;;
9665;SDS011;4871;52.004;5.924;2022-12-10T02:57:00;28.50;;;13.50;;
9665;SDS011;4871;52.004;5.924;2022-12-10T03:01:03;28.50;;;13.50;;
9665;SDS011;4871;52.004;5.924;2022-12-10T03:04:05;28.50;;;13.50;;
9665;SDS011;4871;52.004;5.924;2022-12-10T03:05:02;29.30;;;14.20;;
9665;SDS011;4871;52.004;5.924;2022-12-10T03:06:06;29.30;;;14.20;;
9665;SDS011;4871;52.004;5.924;2022-12-10T03:07:02;29.30;;;14.20;;
9665;SDS011;4871;52.004;5.924;2022-12-10T03:08:03;29.30;;;14.20;;
9665;SDS011;4871;52.004;5.924;2022-12-10T03:09:02;29.30;;;14.20;;
9665;SDS011;4871;52.004;5.924;2022-12-10T03:11:03;29.30;;;14.20;;
9665;SDS011;4871;52.004;5.924;2022-12-10T03:12:02;29.30;;;14.20;;
9665;SDS011;4871;52.004;5.924;2022-12-10T03:13:02;29.30;;;14.20;;
9665;SDS011;4871;52.004;5.924;2022-12-10T03:14:13;29.30;;;14.20;;
9665;SDS011;4871;52.004;5.924;2022-12-10T03:15:00;29.30;;;14.20;;
9665;SDS011;4871;52.004;5.924;2022-12-10T03:16:00;29.30;;;14.20;;
9665;SDS011;4871;52.004;5.924;2022-12-10T03:17:00;29.30;;;14.20;;
9665;SDS011;4871;52.004;5.924;2022-12-10T03:18:00;29.30;;;14.20;;
9665;SDS011;4871;52.004;5.924;2022-12-10T03:19:01;29.30;;;14.20;;
9665;SDS011;4871;52.004;5.924;2022-12-10T03:20:00;29.30;;;14.20;;
9665;SDS011;4871;52.004;5.924;2022-12-10T03:21:01;29.30;;;14.20;;
9665;SDS011;4871;52.004;5.924;2022-12-10T03:22:00;29.30;;;14.20;;
9665;SDS011;4871;52.004;5.924;2022-12-10T03:23:00;29.30;;;14.20;;
9665;SDS011;4871;52.004;5.924;2022-12-10T03:24:00;29.30;;;14.20;;
9665;SDS011;4871;52.004;5.924;2022-12-10T03:25:00;29.30;;;14.20;;
9665;SDS011;4871;52.004;5.924;2022-12-10T03:26:00;29.30;;;14.20;;
9665;SDS011;4871;52.004;5.924;2022-12-10T03:27:00;29.30;;;14.20;;
9665;SDS011;4871;52.004;5.924;2022-12-10T03:28:00;29.30;;;14.20;;
9665;SDS011;4871;52.004;5.924;2022-12-10T03:29:02;29.30;;;14.20;;
9665;SDS011;4871;52.004;5.924;2022-12-10T03:30:00;29.30;;;14.20;;
9665;SDS011;4871;52.004;5.924;2022-12-10T03:31:00;29.30;;;14.20;;
9665;SDS011;4871;52.004;5.924;2022-12-10T03:32:00;29.30;;;14.20;;
9665;SDS011;4871;52.004;5.924;2022-12-10T03:33:00;29.30;;;14.20;;
9665;SDS011;4871;52.004;5.924;2022-12-10T03:34:00;29.30;;;14.20;;
9665;SDS011;4871;52.004;5.924;2022-12-10T03:35:00;33.00;;;15.20;;
9665;SDS011;4871;52.004;5.924;2022-12-10T03:36:00;33.00;;;15.20;;
9665;SDS011;4871;52.004;5.924;2022-12-10T03:37:00;33.00;;;15.20;;
9665;SDS011;4871;52.004;5.924;2022-12-10T03:38:00;33.00;;;15.20;;
9665;SDS011;4871;52.004;5.924;2022-12-10T03:39:00;33.00;;;15.20;;
9665;SDS011;4871;52.004;5.924;2022-12-10T03:40:00;33.00;;;15.20;;
9665;SDS011;4871;52.004;5.924;2022-12-10T03:41:00;33.00;;;15.20;;
9665;SDS011;4871;52.004;5.924;2022-12-10T03:42:00;33.00;;;15.20;;
9665;SDS011;4871;52.004;5.924;2022-12-10T03:43:00;33.00;;;15.20;;
9665;SDS011;4871;52.004;5.924;2022-12-10T03:44:00;33.00;;;15.20;;
9665;SDS011;4871;52.004;5.924;2022-12-10T03:45:00;33.00;;;15.20;;
9665;SDS011;4871;52.004;5.924;2022-12-10T03:46:00;33.00;;;15.20;;
9665;SDS011;4871;52.004;5.924;2022-12-10T03:47:01;33.00;;;15.20;;
9665;SDS011;4871;52.004;5.924;2022-12-10T03:48:00;33.00;;;15.20;;
9665;SDS011;4871;52.004;5.924;2022-12-10T03:49:00;33.00;;;15.20;;
9665;SDS011;4871;52.004;5.924;2022-12-10T03:50:00;33.00;;;15.20;;
9665;SDS011;4871;52.004;5.924;2022-12-10T03:51:00;33.00;;;15.20;;
9665;SDS011;4871;52.004;5.924;2022-12-10T03:52:00;33.00;;;15.20;;
9665;SDS011;4871;52.004;5.924;2022-12-10T03:53:00;33.00;;;15.20;;
9665;SDS011;4871;52.004;5.924;2022-12-10T03:54:00;33.00;;;15.20;;
9665;SDS011;4871;52.004;5.924;2022-12-10T03:55:00;33.00;;;15.20;;
9665;SDS011;4871;52.004;5.924;2022-12-10T03:56:00;33.00;;;15.20;;
9665;SDS011;4871;52.004;5.924;2022-12-10T03:57:00;33.00;;;15.20;;
9665;SDS011;4871;52.004;5.924;2022-12-10T03:58:00;33.00;;;15.20;;
9665;SDS011;4871;52.004;5.924;2022-12-10T03:59:00;33.00;;;15.20;;
9665;SDS011;4871;52.004;5.924;2022-12-10T04:00:00;33.00;;;15.20;;
9665;SDS011;4871;52.004;5.924;2022-12-10T04:01:00;33.00;;;15.20;;
9665;SDS011;4871;52.004;5.924;2022-12-10T04:02:00;33.00;;;15.20;;
9665;SDS011;4871;52.004;5.924;2022-12-10T04:03:00;33.00;;;15.20;;
9665;SDS011;4871;52.004;5.924;2022-12-10T04:04:00;33.00;;;15.20;;
9665;SDS011;4871;52.004;5.924;2022-12-10T04:05:00;34.80;;;16.40;;
9665;SDS011;4871;52.004;5.924;2022-12-10T04:06:02;34.80;;;16.40;;
9665;SDS011;4871;52.004;5.924;2022-12-10T04:07:00;34.80;;;16.40;;
9665;SDS011;4871;52.004;5.924;2022-12-10T04:08:00;34.80;;;16.40;;
9665;SDS011;4871;52.004;5.924;2022-12-10T04:09:00;34.80;;;16.40;;
9665;SDS011;4871;52.004;5.924;2022-12-10T04:10:00;34.80;;;16.40;;
9665;SDS011;4871;52.004;5.924;2022-12-10T04:11:02;34.80;;;16.40;;
9665;SDS011;4871;52.004;5.924;2022-12-10T04:12:00;34.80;;;16.40;;
9665;SDS011;4871;52.004;5.924;2022-12-10T04:13:10;34.80;;;16.40;;
9665;SDS011;4871;52.004;5.924;2022-12-10T04:14:10;34.80;;;16.40;;
9665;SDS011;4871;52.004;5.924;2022-12-10T04:15:10;34.80;;;16.40;;
9665;SDS011;4871;52.004;5.924;2022-12-10T04:16:10;34.80;;;16.40;;
9665;SDS011;4871;52.004;5.924;2022-12-10T04:17:00;34.80;;;16.40;;
9665;SDS011;4871;52.004;5.924;2022-12-10T04:18:00;34.80;;;16.40;;
9665;SDS011;4871;52.004;5.924;2022-12-10T04:19:01;34.80;;;16.40;;
9665;SDS011;4871;52.004;5.924;2022-12-10T04:20:00;34.80;;;16.40;;
9665;SDS011;4871;52.004;5.924;2022-12-10T04:21:10;34.80;;;16.40;;
9665;SDS011;4871;52.004;5.924;2022-12-10T04:22:10;34.80;;;16.40;;
9665;SDS011;4871;52.004;5.924;2022-12-10T04:23:10;34.80;;;16.40;;
9665;SDS011;4871;52.004;5.924;2022-12-10T04:24:10;34.80;;;16.40;;
9665;SDS011;4871;52.004;5.924;2022-12-10T04:25:10;34.80;;;16.40;;
9665;SDS011;4871;52.004;5.924;2022-12-10T04:26:10;34.80;;;16.40;;
9665;SDS011;4871;52.004;5.924;2022-12-10T04:27:02;34.80;;;16.40;;
9665;SDS011;4871;52.004;5.924;2022-12-10T04:28:00;34.80;;;16.40;;
9665;SDS011;4871;52.004;5.924;2022-12-10T04:29:00;34.80;;;16.40;;
9665;SDS011;4871;52.004;5.924;2022-12-10T04:30:00;34.80;;;16.40;;
9665;SDS011;4871;52.004;5.924;2022-12-10T04:31:00;34.80;;;16.40;;
9665;SDS011;4871;52.004;5.924;2022-12-10T04:32:00;34.80;;;16.40;;
9665;SDS011;4871;52.004;5.924;2022-12-10T04:33:00;34.80;;;16.40;;
9665;SDS011;4871;52.004;5.924;2022-12-10T04:34:00;34.80;;;16.40;;
9665;SDS011;4871;52.004;5.924;2022-12-10T04:35:00;33.20;;;16.20;;
9665;SDS011;4871;52.004;5.924;2022-12-10T04:36:00;33.20;;;16.20;;
9665;SDS011;4871;52.004;5.924;2022-12-10T04:37:00;33.20;;;16.20;;
9665;SDS011;4871;52.004;5.924;2022-12-10T04:38:00;33.20;;;16.20;;
9665;SDS011;4871;52.004;5.924;2022-12-10T04:39:00;33.20;;;16.20;;
9665;SDS011;4871;52.004;5.924;2022-12-10T04:40:00;33.20;;;16.20;;
9665;SDS011;4871;52.004;5.924;2022-12-10T04:41:00;33.20;;;16.20;;
9665;SDS011;4871;52.004;5.924;2022-12-10T04:42:00;33.20;;;16.20;;
9665;SDS011;4871;52.004;5.924;2022-12-10T04:43:00;33.20;;;16.20;;
9665;SDS011;4871;52.004;5.924;2022-12-10T04:44:00;33.20;;;16.20;;
9665;SDS011;4871;52.004;5.924;2022-12-10T04:45:00;33.20;;;16.20;;
9665;SDS011;4871;52.004;5.924;2022-12-10T04:46:00;33.20;;;16.20;;
9665;SDS011;4871;52.004;5.924;2022-12-10T04:47:00;33.20;;;16.20;;
9665;SDS011;4871;52.004;5.924;2022-12-10T04:48:00;33.20;;;16.20;;
9665;SDS011;4871;52.004;5.924;2022-12-10T04:49:00;33.20;;;16.20;;
9665;SDS011;4871;52.004;5.924;2022-12-10T04:50:00;33.20;;;16.20;;
9665;SDS011;4871;52.004;5.924;2022-12-10T04:51:00;33.20;;;16.20;;
9665;SDS011;4871;52.004;5.924;2022-12-10T04:52:00;33.20;;;16.20;;
9665;SDS011;4871;52.004;5.924;2022-12-10T04:53:00;33.20;;;16.20;;
9665;SDS011;4871;52.004;5.924;2022-12-10T04:54:00;33.20;;;16.20;;
9665;SDS011;4871;52.004;5.924;2022-12-10T04:55:00;33.20;;;16.20;;
9665;SDS011;4871;52.004;5.924;2022-12-10T04:56:01;33.20;;;16.20;;
9665;SDS011;4871;52.004;5.924;2022-12-10T04:57:00;33.20;;;16.20;;
9665;SDS011;4871;52.004;5.924;2022-12-10T04:58:00;33.20;;;16.20;;
9665;SDS011;4871;52.004;5.924;2022-12-10T04:59:00;33.20;;;16.20;;
9665;SDS011;4871;52.004;5.924;2022-12-10T05:00:00;33.20;;;16.20;;
9665;SDS011;4871;52.004;5.924;2022-12-10T05:01:00;33.20;;;16.20;;
9665;SDS011;4871;52.004;5.924;2022-12-10T05:02:00;33.20;;;16.20;;
9665;SDS011;4871;52.004;5.924;2022-12-10T05:03:00;33.20;;;16.20;;
9665;SDS011;4871;52.004;5.924;2022-12-10T05:04:01;33.20;;;16.20;;
9665;SDS011;4871;52.004;5.924;2022-12-10T05:05:00;40.00;;;17.60;;
9665;SDS011;4871;52.004;5.924;2022-12-10T05:06:01;40.00;;;17.60;;
9665;SDS011;4871;52.004;5.924;2022-12-10T05:07:00;40.00;;;17.60;;
9665;SDS011;4871;52.004;5.924;2022-12-10T05:08:00;40.00;;;17.60;;
9665;SDS011;4871;52.004;5.924;2022-12-10T05:09:00;40.00;;;17.60;;
9665;SDS011;4871;52.004;5.924;2022-12-10T05:10:00;40.00;;;17.60;;
9665;SDS011;4871;52.004;5.924;2022-12-10T05:11:01;40.00;;;17.60;;
9665;SDS011;4871;52.004;5.924;2022-12-10T05:12:00;40.00;;;17.60;;
9665;SDS011;4871;52.004;5.924;2022-12-10T05:13:00;40.00;;;17.60;;
9665;SDS011;4871;52.004;5.924;2022-12-10T05:14:00;40.00;;;17.60;;
9665;SDS011;4871;52.004;5.924;2022-12-10T05:15:00;40.00;;;17.60;;
9665;SDS011;4871;52.004;5.924;2022-12-10T05:16:02;40.00;;;17.60;;
9665;SDS011;4871;52.004;5.924;2022-12-10T05:17:00;40.00;;;17.60;;
9665;SDS011;4871;52.004;5.924;2022-12-10T05:18:00;40.00;;;17.60;;
9665;SDS011;4871;52.004;5.924;2022-12-10T05:19:00;40.00;;;17.60;;
9665;SDS011;4871;52.004;5.924;2022-12-10T05:20:00;40.00;;;17.60;;
9665;SDS011;4871;52.004;5.924;2022-12-10T05:21:00;40.00;;;17.60;;
9665;SDS011;4871;52.004;5.924;2022-12-10T05:22:10;40.00;;;17.60;;
9665;SDS011;4871;52.004;5.924;2022-12-10T05:23:10;40.00;;;17.60;;
9665;SDS011;4871;52.004;5.924;2022-12-10T05:24:00;40.00;;;17.60;;
9665;SDS011;4871;52.004;5.924;2022-12-10T05:25:00;40.00;;;17.60;;
9665;SDS011;4871;52.004;5.924;2022-12-10T05:26:01;40.00;;;17.60;;
9665;SDS011;4871;52.004;5.924;2022-12-10T05:27:00;40.00;;;17.60;;
9665;SDS011;4871;52.004;5.924;2022-12-10T05:28:00;40.00;;;17.60;;
9665;SDS011;4871;52.004;5.924;2022-12-10T05:29:00;40.00;;;17.60;;
9665;SDS011;4871;52.004;5.924;2022-12-10T05:30:00;40.00;;;17.60;;
9665;SDS011;4871;52.004;5.924;2022-12-10T05:31:00;40.00;;;17.60;;
9665;SDS011;4871;52.004;5.924;2022-12-10T05:32:00;40.00;;;17.60;;
9665;SDS011;4871;52.004;5.924;2022-12-10T05:33:00;40.00;;;17.60;;
9665;SDS011;4871;52.004;5.924;2022-12-10T05:34:00;40.00;;;17.60;;
9665;SDS011;4871;52.004;5.924;2022-12-10T05:35:00;39.20;;;17.70;;
9665;SDS011;4871;52.004;5.924;2022-12-10T05:36:01;39.20;;;17.70;;
9665;SDS011;4871;52.004;5.924;2022-12-10T05:37:00;39.20;;;17.70;;
9665;SDS011;4871;52.004;5.924;2022-12-10T05:38:00;39.20;;;17.70;;
9665;SDS011;4871;52.004;5.924;2022-12-10T05:39:00;39.20;;;17.70;;
9665;SDS011;4871;52.004;5.924;2022-12-10T05:40:00;39.20;;;17.70;;
9665;SDS011;4871;52.004;5.924;2022-12-10T05:41:01;39.20;;;17.70;;
9665;SDS011;4871;52.004;5.924;2022-12-10T05:42:00;39.20;;;17.70;;
9665;SDS011;4871;52.004;5.924;2022-12-10T05:43:00;39.20;;;17.70;;
9665;SDS011;4871;52.004;5.924;2022-12-10T05:44:00;39.20;;;17.70;;
9665;SDS011;4871;52.004;5.924;2022-12-10T05:45:00;39.20;;;17.70;;
9665;SDS011;4871;52.004;5.924;2022-12-10T05:46:01;39.20;;;17.70;;
9665;SDS011;4871;52.004;5.924;2022-12-10T05:47:00;39.20;;;17.70;;
9665;SDS011;4871;52.004;5.924;2022-12-10T05:48:00;39.20;;;17.70;;
9665;SDS011;4871;52.004;5.924;2022-12-10T05:49:00;39.20;;;17.70;;
9665;SDS011;4871;52.004;5.924;2022-12-10T05:50:00;39.20;;;17.70;;
9665;SDS011;4871;52.004;5.924;2022-12-10T05:51:04;39.20;;;17.70;;
9665;SDS011;4871;52.004;5.924;2022-12-10T05:52:00;39.20;;;17.70;;
9665;SDS011;4871;52.004;5.924;2022-12-10T05:53:00;39.20;;;17.70;;
9665;SDS011;4871;52.004;5.924;2022-12-10T05:54:02;39.20;;;17.70;;
9665;SDS011;4871;52.004;5.924;2022-12-10T05:55:00;39.20;;;17.70;;
9665;SDS011;4871;52.004;5.924;2022-12-10T05:56:00;39.20;;;17.70;;
9665;SDS011;4871;52.004;5.924;2022-12-10T05:57:00;39.20;;;17.70;;
9665;SDS011;4871;52.004;5.924;2022-12-10T05:58:00;39.20;;;17.70;;
9665;SDS011;4871;52.004;5.924;2022-12-10T05:59:00;39.20;;;17.70;;
9665;SDS011;4871;52.004;5.924;2022-12-10T06:00:00;39.20;;;17.70;;
9665;SDS011;4871;52.004;5.924;2022-12-10T06:01:00;39.20;;;17.70;;
9665;SDS011;4871;52.004;5.924;2022-12-10T06:02:00;39.20;;;17.70;;
9665;SDS011;4871;52.004;5.924;2022-12-10T06:03:00;39.20;;;17.70;;
9665;SDS011;4871;52.004;5.924;2022-12-10T06:04:00;39.20;;;17.70;;
9665;SDS011;4871;52.004;5.924;2022-12-10T06:05:00;39.40;;;18.70;;
9665;SDS011;4871;52.004;5.924;2022-12-10T06:06:00;39.40;;;18.70;;
9665;SDS011;4871;52.004;5.924;2022-12-10T06:07:00;39.40;;;18.70;;
9665;SDS011;4871;52.004;5.924;2022-12-10T06:08:00;39.40;;;18.70;;
9665;SDS011;4871;52.004;5.924;2022-12-10T06:09:00;39.40;;;18.70;;
9665;SDS011;4871;52.004;5.924;2022-12-10T06:10:00;39.40;;;18.70;;
9665;SDS011;4871;52.004;5.924;2022-12-10T06:11:01;39.40;;;18.70;;
9665;SDS011;4871;52.004;5.924;2022-12-10T06:12:00;39.40;;;18.70;;
9665;SDS011;4871;52.004;5.924;2022-12-10T06:13:00;39.40;;;18.70;;
9665;SDS011;4871;52.004;5.924;2022-12-10T06:14:01;39.40;;;18.70;;
9665;SDS011;4871;52.004;5.924;2022-12-10T06:15:00;39.40;;;18.70;;
9665;SDS011;4871;52.004;5.924;2022-12-10T06:16:03;39.40;;;18.70;;